Time;durP1;ratioP1;P1;durP2;ratioP2;P2;SDS_P1;SDS_P2;PMS_P1;PMS_P2;Temp;Humidity;BMP_temperature;BMP_pressure;BME280_temperature;BME280_humidity;BME280_pressure;Samples;Min_cycle;Max_cycle;Signal;HPM_P1;HPM_P2
2023/05/29 00:00:16;;;;;;;13.40;6.13;;;;;;;13.04;100.00;92596.06;4937209;29;20050;-77
2023/05/29 00:02:44;;;;;;;9.98;5.20;;;;;;;13.03;100.00;92598.97;4951706;29;20114;-77
2023/05/29 00:05:13;;;;;;;10.20;4.75;;;;;;;13.02;100.00;92603.47;4937124;29;20071;-76
2023/05/29 00:07:39;;;;;;;14.13;5.03;;;;;;;13.00;100.00;92596.94;4937014;29;20227;-76
2023/05/29 00:10:06;;;;;;;8.52;4.78;;;;;;;13.00;100.00;92586.44;4936848;29;20102;-76
2023/05/29 00:12:32;;;;;;;8.27;4.40;;;;;;;12.96;100.00;92578.38;4936664;29;20040;-76
2023/05/29 00:14:58;;;;;;;8.55;4.93;;;;;;;12.97;100.00;92577.31;4936414;29;20518;-77
2023/05/29 00:17:24;;;;;;;10.77;4.65;;;;;;;12.93;100.00;92586.84;4935717;29;20453;-76
2023/05/29 00:19:50;;;;;;;8.88;4.88;;;;;;;12.92;100.00;92577.41;4937017;29;20036;-77
2023/05/29 00:22:16;;;;;;;8.40;4.18;;;;;;;12.88;100.00;92565.97;4951333;29;20414;-76
2023/05/29 00:24:41;;;;;;;8.35;4.50;;;;;;;12.83;100.00;92569.44;4934853;29;20098;-76
2023/05/29 00:27:08;;;;;;;8.07;4.70;;;;;;;12.76;100.00;92568.31;4950821;29;20044;-76
2023/05/29 00:29:35;;;;;;;8.57;4.75;;;;;;;12.76;100.00;92563.06;4936008;29;20035;-76
2023/05/29 00:32:01;;;;;;;8.65;4.80;;;;;;;12.68;100.00;92562.72;4950705;29;20048;-76
2023/05/29 00:34:27;;;;;;;7.88;4.07;;;;;;;12.71;100.00;92561.34;4950783;28;20042;-76
2023/05/29 00:36:55;;;;;;;10.98;4.40;;;;;;;12.70;100.00;92557.94;4934379;29;20118;-76
2023/05/29 00:39:21;;;;;;;7.95;4.20;;;;;;;12.70;100.00;92544.03;4950568;29;20035;-77
2023/05/29 00:41:51;;;;;;;7.80;4.18;;;;;;;12.70;100.00;92541.41;4950412;29;20043;-76
2023/05/29 00:44:20;;;;;;;8.98;3.83;;;;;;;12.68;100.00;92540.94;4935446;29;20102;-76
2023/05/29 00:46:50;;;;;;;7.70;4.40;;;;;;;12.68;100.00;92540.94;4949308;29;20094;-76
2023/05/29 00:49:17;;;;;;;6.95;3.80;;;;;;;12.69;100.00;92529.34;4950221;29;20059;-76
2023/05/29 00:51:44;;;;;;;7.03;4.15;;;;;;;12.70;100.00;92531.66;4950183;29;20402;-75
2023/05/29 00:54:14;;;;;;;7.80;3.92;;;;;;;12.70;100.00;92529.03;4949841;28;20529;-76
2023/05/29 00:56:43;;;;;;;8.95;4.00;;;;;;;12.69;100.00;92527.47;4950018;29;20422;-76
2023/05/29 00:59:10;;;;;;;7.68;4.10;;;;;;;12.69;100.00;92516.19;4935013;29;20055;-76
2023/05/29 01:01:36;;;;;;;8.13;4.13;;;;;;;12.66;100.00;92514.19;4935222;29;20080;-76
2023/05/29 01:04:06;;;;;;;7.57;4.07;;;;;;;12.64;100.00;92513.69;4933791;29;20036;-76
2023/05/29 01:06:33;;;;;;;7.50;3.88;;;;;;;12.62;100.00;92513.22;4935055;29;20050;-76
2023/05/29 01:08:58;;;;;;;8.95;4.00;;;;;;;12.63;100.00;92506.88;4935077;29;20035;-76
2023/05/29 01:11:46;;;;;;;9.65;3.90;;;;;;;12.64;100.00;92503.97;4949531;29;20098;-76
2023/05/29 01:14:29;;;;;;;6.90;3.67;;;;;;;12.67;100.00;92505.22;4949902;28;20032;-76
2023/05/29 01:17:11;;;;;;;6.45;3.45;;;;;;;12.68;100.00;92499.66;4949626;29;20036;-76
2023/05/29 01:19:47;;;;;;;6.47;3.75;;;;;;;12.71;100.00;92504.31;4935063;29;20040;-76
2023/05/29 01:22:39;;;;;;;7.40;3.95;;;;;;;12.70;100.00;92500.16;4935180;29;20049;-76
2023/05/29 01:25:16;;;;;;;6.22;3.38;;;;;;;12.68;100.00;92498.91;4949558;28;20074;-76
2023/05/29 01:27:44;;;;;;;6.88;3.10;;;;;;;12.59;100.00;92495.44;4935165;29;20070;-77
2023/05/29 01:30:11;;;;;;;5.90;3.45;;;;;;;12.50;100.00;92498.00;4934846;29;20532;-76
2023/05/29 01:32:38;;;;;;;7.18;3.50;;;;;;;12.45;100.00;92503.34;4949551;29;20047;-76
2023/05/29 01:35:04;;;;;;;7.22;3.47;;;;;;;12.37;100.00;92498.81;4934760;29;20039;-76
2023/05/29 01:37:30;;;;;;;6.28;3.38;;;;;;;12.33;100.00;92501.25;4949155;29;20047;-75
2023/05/29 01:39:55;;;;;;;6.97;3.60;;;;;;;12.28;100.00;92502.13;4933655;29;20082;-76
2023/05/29 01:42:22;;;;;;;9.45;3.70;;;;;;;12.28;100.00;92511.84;4934617;29;20059;-76
2023/05/29 01:44:48;;;;;;;7.75;3.63;;;;;;;12.26;100.00;92509.53;4934551;29;20410;-76
2023/05/29 01:47:15;;;;;;;7.97;4.20;;;;;;;12.24;100.00;92511.66;4934504;29;20128;-76
2023/05/29 01:49:43;;;;;;;7.15;3.80;;;;;;;12.23;100.00;92507.50;4934984;29;20047;-76
2023/05/29 01:52:10;;;;;;;7.22;3.75;;;;;;;12.23;100.00;92504.09;4933546;29;20047;-76
2023/05/29 01:54:36;;;;;;;10.77;5.13;;;;;;;12.22;100.00;92503.31;4933242;29;20090;-76
2023/05/29 01:57:05;;;;;;;8.80;4.20;;;;;;;12.21;100.00;92506.25;4934263;29;20130;-76
2023/05/29 01:59:33;;;;;;;9.77;4.75;;;;;;;12.21;100.00;92512.25;4949768;29;20043;-77
2023/05/29 02:02:06;;;;;;;8.02;4.50;;;;;;;12.21;100.00;92511.50;4949524;29;20167;-76
2023/05/29 02:04:31;;;;;;;9.27;4.63;;;;;;;12.21;100.00;92507.00;4934116;29;20035;-76
2023/05/29 02:06:57;;;;;;;8.27;4.43;;;;;;;12.19;100.00;92505.75;4949349;29;20406;-76
2023/05/29 02:09:23;;;;;;;9.05;4.63;;;;;;;12.14;100.00;92506.63;4934502;29;20040;-76
2023/05/29 02:11:49;;;;;;;10.68;4.70;;;;;;;12.11;100.00;92511.69;4949074;29;20058;-76
2023/05/29 02:14:15;;;;;;;7.93;4.35;;;;;;;12.05;100.00;92509.19;4949041;28;20500;-76
2023/05/29 02:16:40;;;;;;;8.02;4.07;;;;;;;12.00;100.00;92501.41;4932815;29;20028;-76
2023/05/29 02:19:06;;;;;;;8.38;4.57;;;;;;;11.97;100.00;92496.75;4948849;29;20040;-76
2023/05/29 02:21:32;;;;;;;7.28;4.03;;;;;;;11.96;100.00;92503.06;4948901;29;20043;-76
2023/05/29 02:23:58;;;;;;;8.15;4.30;;;;;;;11.95;100.00;92498.88;4932761;29;20091;-76
2023/05/29 02:26:24;;;;;;;7.22;3.85;;;;;;;11.91;100.00;92502.38;4934298;29;20040;-76
2023/05/29 02:28:50;;;;;;;7.53;3.90;;;;;;;11.89;100.00;92502.69;4933876;29;20390;-76
2023/05/29 02:31:15;;;;;;;8.98;4.30;;;;;;;11.87;100.00;92512.66;4948864;29;20058;-76
2023/05/29 02:33:41;;;;;;;11.07;4.43;;;;;;;11.81;100.00;92509.34;4948648;28;20055;-76
2023/05/29 02:36:11;;;;;;;8.90;4.47;;;;;;;11.78;100.00;92511.81;4948545;29;20096;-75
2023/05/29 02:38:37;;;;;;;9.35;4.68;;;;;;;11.77;100.00;92518.09;4933187;29;20490;-76
2023/05/29 02:41:03;;;;;;;8.50;4.40;;;;;;;11.79;100.00;92511.50;4948498;29;20039;-76
2023/05/29 02:43:28;;;;;;;7.65;4.53;;;;;;;11.79;100.00;92516.75;4934113;29;20050;-76
2023/05/29 02:45:54;;;;;;;9.88;4.75;;;;;;;11.77;100.00;92513.63;4948570;29;20044;-76
2023/05/29 02:48:21;;;;;;;10.57;4.78;;;;;;;11.75;100.00;92515.75;4933721;29;20453;-76
2023/05/29 02:50:46;;;;;;;9.27;4.32;;;;;;;11.72;100.00;92516.34;4948577;29;20043;-76
2023/05/29 02:53:12;;;;;;;9.35;4.38;;;;;;;11.70;100.00;92505.38;4932495;29;20023;-76
2023/05/29 02:55:37;;;;;;;7.70;4.35;;;;;;;11.66;100.00;92512.28;4948445;29;20066;-76
2023/05/29 02:58:03;;;;;;;8.13;4.60;;;;;;;11.64;100.00;92509.16;4932156;29;20138;-76
2023/05/29 03:00:29;;;;;;;8.00;4.43;;;;;;;11.62;100.00;92509.47;4933782;29;20047;-76
2023/05/29 03:02:57;;;;;;;6.82;3.78;;;;;;;11.61;100.00;92509.75;4932475;29;20043;-76
2023/05/29 03:05:23;;;;;;;9.55;4.28;;;;;;;11.59;100.00;92501.41;4933599;29;20040;-76
2023/05/29 03:07:48;;;;;;;8.23;4.55;;;;;;;11.59;100.00;92496.16;4933586;29;20067;-76
2023/05/29 03:10:16;;;;;;;11.02;5.03;;;;;;;11.57;100.00;92493.03;4951663;29;20051;-76
2023/05/29 03:12:43;;;;;;;9.18;4.90;;;;;;;11.52;100.00;92493.16;4951947;29;20544;-76
2023/05/29 03:15:10;;;;;;;7.47;4.05;;;;;;;11.49;100.00;92491.88;4937391;29;20044;-76
2023/05/29 03:17:38;;;;;;;8.38;4.40;;;;;;;11.46;100.00;92497.72;4951594;29;20114;-76
2023/05/29 03:20:06;;;;;;;9.60;4.65;;;;;;;11.43;100.00;92493.81;4951714;29;20098;-76
2023/05/29 03:22:32;;;;;;;9.85;4.93;;;;;;;11.42;100.00;92492.28;4951632;29;20043;-76
2023/05/29 03:24:58;;;;;;;9.00;5.28;;;;;;;11.37;100.00;92488.97;4935614;29;20043;-76
2023/05/29 03:27:23;;;;;;;9.70;5.07;;;;;;;11.32;100.00;92492.44;4951600;29;20044;-76
2023/05/29 03:29:59;;;;;;;10.85;4.88;;;;;;;11.30;100.00;92489.34;4935515;29;20114;-76
2023/05/29 03:32:25;;;;;;;7.82;4.72;;;;;;;11.28;100.00;92486.25;4951805;29;20039;-76
2023/05/29 03:34:50;;;;;;;11.57;4.82;;;;;;;11.28;100.00;92486.25;4950014;28;20509;-75
2023/05/29 03:37:16;;;;;;;8.45;4.70;;;;;;;11.27;100.00;92487.31;4948700;29;20407;-75
2023/05/29 03:39:42;;;;;;;8.55;4.88;;;;;;;11.30;100.00;92485.94;4933968;29;20122;-75
2023/05/29 03:42:08;;;;;;;7.45;3.92;;;;;;;11.30;100.00;92488.56;4917146;29;20035;-75
2023/05/29 03:44:34;;;;;;;7.57;4.10;;;;;;;11.30;100.00;92484.09;4935164;29;20046;-75
2023/05/29 03:46:59;;;;;;;8.32;3.88;;;;;;;11.30;100.00;92484.09;4916768;29;20043;-75
2023/05/29 03:49:25;;;;;;;7.97;4.05;;;;;;;11.31;100.00;92492.75;4933185;29;20039;-75
2023/05/29 03:51:50;;;;;;;6.38;3.72;;;;;;;11.28;100.00;92486.25;4934151;29;20058;-75
2023/05/29 03:54:16;;;;;;;8.32;4.22;;;;;;;11.27;100.00;92484.69;4931221;29;20046;-75
2023/05/29 03:56:43;;;;;;;9.45;4.15;;;;;;;11.29;100.00;92479.16;4931776;29;20119;-75
2023/05/29 03:59:11;;;;;;;9.80;4.47;;;;;;;11.28;100.00;92485.47;4932832;29;20063;-75
2023/05/29 04:01:36;;;;;;;8.80;4.35;;;;;;;11.28;100.00;92486.25;4932377;29;20066;-75
2023/05/29 04:04:02;;;;;;;9.07;4.03;;;;;;;11.30;100.00;92480.72;4924990;29;20039;-75
2023/05/29 04:06:29;;;;;;;8.23;4.40;;;;;;;11.33;100.00;92488.78;4915026;29;20038;-75
2023/05/29 04:08:56;;;;;;;10.88;4.45;;;;;;;11.36;100.00;92487.41;4931144;29;20047;-75
2023/05/29 04:11:22;;;;;;;10.27;4.75;;;;;;;11.39;100.00;92481.59;4928211;29;20091;-75
2023/05/29 04:13:48;;;;;;;8.23;4.55;;;;;;;11.41;100.00;92482.84;4921223;29;20406;-75
2023/05/29 04:16:14;;;;;;;11.55;5.07;;;;;;;11.45;100.00;92486.44;4927138;29;20052;-75
2023/05/29 04:18:40;;;;;;;10.38;5.07;;;;;;;11.49;100.00;92491.13;4938926;29;20036;-75
2023/05/29 04:21:06;;;;;;;8.95;5.25;;;;;;;11.54;100.00;92494.41;4930764;29;20333;-75
2023/05/29 04:23:31;;;;;;;8.27;4.90;;;;;;;11.60;100.00;92495.09;4930837;29;20032;-75
2023/05/29 04:25:57;;;;;;;10.40;4.90;;;;;;;11.62;100.00;92496.38;4948233;29;20090;-75
2023/05/29 04:28:26;;;;;;;11.18;5.47;;;;;;;11.70;100.00;92497.50;4932234;29;20495;-75
2023/05/29 04:30:55;;;;;;;16.25;5.60;;;;;;;11.75;100.00;92505.28;4928147;29;20094;-75
2023/05/29 04:33:23;;;;;;;9.57;5.75;;;;;;;11.85;100.00;92510.34;4931932;29;20414;-75
2023/05/29 04:35:50;;;;;;;11.27;6.05;;;;;;;11.94;100.00;92514.94;4925516;29;20032;-75
2023/05/29 04:38:17;;;;;;;11.65;6.00;;;;;;;12.01;100.00;92518.69;4928015;29;20043;-75
2023/05/29 04:40:44;;;;;;;9.45;5.57;;;;;;;12.06;100.00;92515.97;4932858;29;20043;-75
2023/05/29 04:43:11;;;;;;;11.68;6.38;;;;;;;12.12;100.00;92521.91;4931905;29;20054;-75
2023/05/29 04:45:58;;;;;;;10.10;6.47;;;;;;;12.22;100.00;92518.28;4928877;29;20054;-75
2023/05/29 04:48:24;;;;;;;10.95;6.22;;;;;;;12.28;100.00;92517.88;4932354;29;20044;-75
2023/05/29 04:50:50;;;;;;;13.00;5.35;;;;;;;12.35;100.00;92527.19;4948533;29;20028;-75
2023/05/29 04:53:16;;;;;;;11.27;5.65;;;;;;;12.40;100.00;92529.72;4925706;29;20032;-75
2023/05/29 04:55:42;;;;;;;7.30;4.43;;;;;;;12.46;100.00;92528.53;4933195;29;20425;-75
2023/05/29 04:58:08;;;;;;;10.95;4.32;;;;;;;12.53;100.00;92534.16;4932170;29;20122;-75
2023/05/29 05:00:33;;;;;;;8.15;4.72;;;;;;;12.60;100.00;92523.25;4925145;29;20042;-75
2023/05/29 05:02:59;;;;;;;11.23;4.60;;;;;;;12.67;100.00;92528.84;4929643;29;20039;-75
2023/05/29 05:05:25;;;;;;;9.20;4.25;;;;;;;12.71;100.00;92533.22;4932806;29;20036;-76
2023/05/29 05:07:56;;;;;;;9.02;4.15;;;;;;;12.78;100.00;92529.41;4932664;29;20405;-75
2023/05/29 05:10:22;;;;;;;6.85;3.97;;;;;;;12.83;100.00;92535.28;4932019;29;20409;-75
2023/05/29 05:12:48;;;;;;;9.57;4.75;;;;;;;12.93;100.00;92521.16;4928850;29;20032;-75
2023/05/29 05:15:15;;;;;;;9.68;4.50;;;;;;;13.02;100.00;92519.38;4931327;29;20040;-75
2023/05/29 05:17:41;;;;;;;9.63;4.25;;;;;;;13.13;100.00;92530.41;4932897;29;20491;-75
2023/05/29 05:20:08;;;;;;;11.43;4.80;;;;;;;13.23;100.00;92537.28;4933294;29;20409;-75
2023/05/29 05:22:34;;;;;;;7.65;4.55;;;;;;;13.30;100.00;92535.78;4930060;29;20039;-75
2023/05/29 05:25:00;;;;;;;11.00;4.55;;;;;;;13.40;100.00;92547.91;4947987;28;20040;-76
2023/05/29 05:27:26;;;;;;;8.35;4.90;;;;;;;13.52;100.00;92542.88;4932477;29;20099;-75
2023/05/29 05:29:52;;;;;;;10.88;5.13;;;;;;;13.65;100.00;92545.72;4917001;29;20035;-76
2023/05/29 05:32:18;;;;;;;8.45;5.07;;;;;;;13.71;100.00;92540.03;4946984;28;20062;-75
2023/05/29 05:34:47;;;;;;;10.35;4.70;;;;;;;13.82;100.00;92551.03;4930250;29;20498;-75
2023/05/29 05:37:12;;;;;;;10.30;4.50;;;;;;;13.92;100.00;92548.13;4930163;29;20091;-75
2023/05/29 05:39:40;;;;;;;8.75;4.72;;;;;;;14.04;100.00;92552.03;4931269;29;20134;-76
2023/05/29 05:42:06;;;;;;;11.95;5.13;;;;;;;14.17;100.00;92551.16;4933750;29;20069;-78
2023/05/29 05:44:44;;;;;;;8.25;4.43;;;;;;;14.33;100.00;92547.00;4951904;28;20039;-78
2023/05/29 05:47:12;;;;;;;9.63;4.25;;;;;;;14.69;100.00;92550.47;4925480;29;20044;-77
2023/05/29 05:49:38;;;;;;;8.15;4.70;;;;;;;15.27;100.00;92549.22;4932566;29;20462;-77
2023/05/29 05:52:03;;;;;;;9.85;4.57;;;;;;;15.87;100.00;92549.38;4939424;29;20094;-79
2023/05/29 05:54:29;;;;;;;8.90;4.95;;;;;;;16.35;100.00;92543.72;4937795;29;20086;-78
2023/05/29 05:56:54;;;;;;;8.75;5.13;;;;;;;16.81;100.00;92549.94;4939605;29;20399;-80
2023/05/29 05:59:20;;;;;;;11.18;4.93;;;;;;;17.11;100.00;92555.16;4939795;29;20048;-79
2023/05/29 06:01:46;;;;;;;10.55;5.00;;;;;;;16.76;100.00;92555.41;4949538;28;20070;-79
2023/05/29 06:04:12;;;;;;;13.57;5.22;;;;;;;16.63;100.00;92557.19;4933573;29;20047;-78
2023/05/29 06:06:38;;;;;;;11.48;5.95;;;;;;;15.82;100.00;92558.25;4934028;29;20054;-78
2023/05/29 06:09:04;;;;;;;10.18;5.53;;;;;;;15.43;100.00;92559.28;4936647;29;20074;-79
2023/05/29 06:11:31;;;;;;;8.55;5.00;;;;;;;15.12;100.00;92553.09;4939227;29;20039;-78
2023/05/29 06:13:57;;;;;;;9.35;5.75;;;;;;;14.76;100.00;92563.97;4953013;28;20028;-79
2023/05/29 06:16:27;;;;;;;9.73;5.07;;;;;;;14.65;100.00;92568.00;4916894;29;20130;-77
2023/05/29 06:18:53;;;;;;;8.70;5.25;;;;;;;14.55;100.00;92571.69;4934071;29;20063;-78
2023/05/29 06:21:19;;;;;;;9.25;5.90;;;;;;;14.36;100.00;92580.63;4934195;29;20120;-78
2023/05/29 06:23:52;;;;;;;10.48;5.82;;;;;;;14.23;100.00;92583.34;4920796;29;20035;-79
2023/05/29 06:26:19;;;;;;;10.80;5.55;;;;;;;14.23;100.00;92584.16;4950693;29;20062;-80
2023/05/29 06:28:46;;;;;;;10.35;5.65;;;;;;;14.07;100.00;92583.00;4950595;28;20614;-78
2023/05/29 06:31:12;;;;;;;10.10;5.85;;;;;;;13.81;100.00;92580.28;4940699;29;20040;-78
2023/05/29 06:33:38;;;;;;;11.40;5.93;;;;;;;13.73;100.00;92584.41;4935231;29;20038;-79
2023/05/29 06:36:05;;;;;;;13.18;5.90;;;;;;;13.71;100.00;92581.31;4937141;29;20039;-79
2023/05/29 06:38:31;;;;;;;10.40;6.18;;;;;;;13.76;100.00;92583.84;4913361;29;20043;-78
2023/05/29 06:40:57;;;;;;;8.65;5.90;;;;;;;13.69;100.00;92584.25;4935417;29;20062;-78
2023/05/29 06:43:23;;;;;;;10.65;5.80;;;;;;;13.65;100.00;92593.06;4918166;29;20047;-78
2023/05/29 06:45:48;;;;;;;11.05;6.35;;;;;;;13.62;100.00;92589.19;4953406;29;20040;-79
2023/05/29 06:48:14;;;;;;;12.45;6.68;;;;;;;13.65;100.00;92585.16;4939951;29;20063;-78
2023/05/29 06:50:40;;;;;;;9.75;5.63;;;;;;;13.66;100.00;92590.09;4938219;29;20048;-78
2023/05/29 06:53:26;;;;;;;10.80;6.18;;;;;;;13.79;100.00;92590.34;4937861;29;20535;-78
2023/05/29 06:55:54;;;;;;;9.63;5.97;;;;;;;13.83;100.00;92593.94;4934269;29;20040;-79
2023/05/29 06:58:20;;;;;;;9.32;5.15;;;;;;;13.95;100.00;92600.16;4940406;29;20111;-78
2023/05/29 07:00:46;;;;;;;10.02;5.70;;;;;;;13.94;100.00;92603.09;4934911;29;20043;-78
2023/05/29 07:03:30;;;;;;;9.90;6.05;;;;;;;13.99;100.00;92602.19;4951695;29;20765;-78
2023/05/29 07:05:56;;;;;;;10.23;6.10;;;;;;;14.02;100.00;92602.34;4933879;29;20135;-79
2023/05/29 07:08:23;;;;;;;13.05;5.60;;;;;;;14.04;100.00;92615.22;4933693;29;20127;-78
2023/05/29 07:10:50;;;;;;;14.55;5.80;;;;;;;14.05;100.00;92617.53;4937572;29;20095;-78
2023/05/29 07:13:19;;;;;;;10.02;5.75;;;;;;;14.16;100.00;92615.41;4939217;29;20715;-78
2023/05/29 07:15:45;;;;;;;9.15;5.28;;;;;;;14.21;100.00;92614.47;4940307;29;20122;-79
2023/05/29 07:18:12;;;;;;;9.75;5.43;;;;;;;14.26;100.00;92615.13;4937779;29;20032;-78
2023/05/29 07:20:38;;;;;;;12.05;5.68;;;;;;;14.49;100.00;92622.94;4934040;29;20076;-78
2023/05/29 07:23:04;;;;;;;9.52;5.32;;;;;;;14.45;100.00;92629.91;4935132;29;20070;-78
2023/05/29 07:25:32;;;;;;;8.18;4.68;;;;;;;14.45;100.00;92632.53;4917204;29;20036;-77
2023/05/29 07:27:57;;;;;;;11.82;5.70;;;;;;;14.43;100.00;92637.31;4933791;29;20039;-78
2023/05/29 07:30:23;;;;;;;9.98;5.63;;;;;;;14.50;100.00;92641.09;4950520;29;20167;-77
2023/05/29 07:32:50;;;;;;;9.25;5.22;;;;;;;14.65;100.00;92637.25;4919523;29;20040;-77
2023/05/29 07:35:16;;;;;;;11.38;5.40;;;;;;;14.78;100.00;92644.25;4932186;29;20462;-77
2023/05/29 07:37:41;;;;;;;8.15;5.03;;;;;;;15.05;100.00;92642.44;4932743;29;20051;-78
2023/05/29 07:40:10;;;;;;;10.52;5.68;;;;;;;14.99;100.00;92641.03;4917821;29;20598;-77
2023/05/29 07:42:58;;;;;;;10.50;5.38;;;;;;;15.19;100.00;92639.63;4935482;29;20560;-77
2023/05/29 07:45:28;;;;;;;10.50;5.72;;;;;;;15.36;100.00;92642.28;4936272;29;20123;-77
2023/05/29 07:47:54;;;;;;;10.88;5.57;;;;;;;15.59;100.00;92642.88;4938157;29;20091;-78
2023/05/29 07:50:21;;;;;;;10.05;5.55;;;;;;;15.72;100.00;92643.03;4948270;29;20426;-77
2023/05/29 07:52:46;;;;;;;9.40;5.55;;;;;;;15.83;100.00;92646.91;4933695;29;20040;-76
2023/05/29 07:55:12;;;;;;;9.73;5.35;;;;;;;15.87;100.00;92649.69;4932673;29;20066;-77
2023/05/29 07:57:42;;;;;;;9.27;5.75;;;;;;;15.77;100.00;92648.16;4935431;29;20068;-80
2023/05/29 08:00:08;;;;;;;11.45;6.55;;;;;;;15.79;100.00;92646.75;4948911;29;20349;-77
2023/05/29 08:02:45;;;;;;;11.55;5.55;;;;;;;15.73;100.00;92652.50;4935381;29;20137;-78
2023/05/29 08:05:22;;;;;;;12.18;6.13;;;;;;;15.64;100.00;92664.91;4933562;29;20049;-78
2023/05/29 08:07:49;;;;;;;9.90;6.32;;;;;;;15.40;100.00;92666.16;4936290;29;20062;-79
2023/05/29 08:10:15;;;;;;;10.55;6.28;;;;;;;15.65;100.00;92664.59;4930556;29;20032;-77
2023/05/29 08:12:40;;;;;;;12.73;6.00;;;;;;;16.16;100.00;92668.22;4932274;29;20039;-77
2023/05/29 08:15:07;;;;;;;10.32;6.25;;;;;;;16.58;100.00;92663.09;4933277;29;20040;-78
2023/05/29 08:17:34;;;;;;;10.38;5.53;;;;;;;16.84;100.00;92657.72;4951280;29;20371;-78
2023/05/29 08:20:00;;;;;;;11.05;5.35;;;;;;;17.13;100.00;92656.09;4935410;29;20078;-77
2023/05/29 08:22:29;;;;;;;10.48;5.75;;;;;;;17.31;100.00;92655.97;4951813;29;20047;-77
2023/05/29 08:24:55;;;;;;;12.10;6.00;;;;;;;17.50;100.00;92648.34;4934306;29;20110;-78
2023/05/29 08:27:21;;;;;;;12.93;6.53;;;;;;;17.61;100.00;92649.50;4933273;29;20036;-78
2023/05/29 08:29:46;;;;;;;8.82;6.25;;;;;;;17.79;100.00;92652.00;4933478;29;20126;-77
2023/05/29 08:32:12;;;;;;;9.18;5.35;;;;;;;18.26;100.00;92654.31;4931464;29;20035;-77
2023/05/29 08:34:38;;;;;;;8.40;5.10;;;;;;;18.68;100.00;92651.47;4933263;29;20028;-76
2023/05/29 08:37:05;;;;;;;7.70;5.05;;;;;;;18.89;100.00;92651.38;4931229;29;20035;-77
2023/05/29 08:39:30;;;;;;;9.15;5.07;;;;;;;19.20;100.00;92650.78;4930388;29;20541;-76
2023/05/29 08:42:10;;;;;;;8.05;4.55;;;;;;;19.52;100.00;92656.22;4930388;29;20032;-76
2023/05/29 08:44:39;;;;;;;9.27;5.57;;;;;;;19.50;100.00;92658.47;4931590;29;20528;-76
2023/05/29 08:47:06;;;;;;;10.48;5.30;;;;;;;19.16;100.00;92660.50;4931622;29;20032;-77
2023/05/29 08:49:45;;;;;;;11.45;4.22;;;;;;;18.87;100.00;92656.25;4931855;29;20109;-77
2023/05/29 08:52:19;;;;;;;8.35;4.50;;;;;;;18.70;100.00;92652.69;4931268;29;20111;-76
2023/05/29 08:54:46;;;;;;;7.20;3.92;;;;;;;18.80;94.96;92656.03;4945192;29;20040;-77
2023/05/29 08:57:12;;;;;;;7.65;3.90;;;;;;;18.91;92.77;92654.47;4928733;29;20541;-76
2023/05/29 08:59:41;;;;;;;9.38;4.50;;;;;;;19.30;100.00;92649.56;4931346;29;20035;-76
2023/05/29 09:02:07;;;;;;;8.93;5.43;;;;;;;19.00;100.00;92657.00;4931217;29;20048;-77
2023/05/29 09:04:33;;;;;;;10.32;6.07;;;;;;;19.14;100.00;92652.91;4926655;29;20480;-76
2023/05/29 09:06:59;;;;;;;9.50;6.07;;;;;;;19.17;100.00;92651.47;4934094;29;20036;-76
2023/05/29 09:09:29;;;;;;;11.68;6.35;;;;;;;18.61;100.00;92651.25;4934501;29;20040;-76
2023/05/29 09:11:56;;;;;;;10.48;6.30;;;;;;;18.29;100.00;92651.03;4933223;29;20036;-76
2023/05/29 09:14:44;;;;;;;9.35;4.28;;;;;;;18.49;100.00;92655.47;4930604;29;20032;-78
2023/05/29 09:17:11;;;;;;;9.50;5.53;;;;;;;18.35;100.00;92655.03;4929820;29;20032;-78
2023/05/29 09:19:40;;;;;;;12.30;6.20;;;;;;;18.26;100.00;92651.66;4936521;29;20083;-78
2023/05/29 09:22:16;;;;;;;9.80;6.18;;;;;;;18.56;100.00;92656.78;4934313;29;20043;-77
2023/05/29 09:24:46;;;;;;;10.27;6.25;;;;;;;18.58;100.00;92657.25;4936487;29;20031;-77
2023/05/29 09:27:13;;;;;;;9.77;5.75;;;;;;;18.74;100.00;92658.13;4937824;29;20490;-78
2023/05/29 09:29:43;;;;;;;9.70;5.97;;;;;;;18.78;100.00;92653.72;4936279;29;20119;-78
2023/05/29 09:32:10;;;;;;;9.25;5.63;;;;;;;19.06;100.00;92650.38;4935581;29;20040;-77
2023/05/29 09:34:36;;;;;;;8.90;5.57;;;;;;;19.06;100.00;92655.69;4933336;29;20032;-76
2023/05/29 09:37:07;;;;;;;12.35;5.57;;;;;;;19.06;100.00;92660.97;4934962;29;20118;-76
2023/05/29 09:39:34;;;;;;;9.93;6.30;;;;;;;18.84;100.00;92655.03;4935916;29;20078;-77
2023/05/29 09:41:59;;;;;;;11.35;6.20;;;;;;;18.86;100.00;92657.34;4941018;29;20295;-80
2023/05/29 09:44:28;;;;;;;8.32;5.22;;;;;;;19.07;100.00;92651.91;4943397;29;20044;-76
2023/05/29 09:46:58;;;;;;;9.27;5.90;;;;;;;19.06;100.00;92650.38;4943148;29;20036;-79
2023/05/29 09:49:23;;;;;;;10.52;6.20;;;;;;;18.71;100.00;92651.59;4939555;29;20040;-77
2023/05/29 09:51:53;;;;;;;12.63;6.15;;;;;;;18.72;100.00;92647.06;4942113;29;20042;-77
2023/05/29 09:54:19;;;;;;;9.43;6.10;;;;;;;18.78;100.00;92648.44;4939681;29;20042;-77
2023/05/29 09:56:46;;;;;;;10.30;6.10;;;;;;;18.84;100.00;92644.41;4937093;29;20110;-77
2023/05/29 09:59:13;;;;;;;8.82;5.65;;;;;;;18.71;100.00;92651.59;4915996;29;20051;-78
2023/05/29 10:01:46;;;;;;;6.70;4.07;;;;;;;18.68;100.00;92640.88;4932923;29;20066;-78
2023/05/29 10:04:13;;;;;;;9.85;5.55;;;;;;;18.73;100.00;92649.41;4934361;29;20499;-78
2023/05/29 10:06:49;;;;;;;8.98;5.45;;;;;;;18.84;100.00;92633.81;4931421;29;20031;-80
2023/05/29 10:09:18;;;;;;;10.40;5.28;;;;;;;18.97;100.00;92625.84;4933507;29;20031;-79
2023/05/29 10:11:46;;;;;;;8.80;4.93;;;;;;;18.70;100.00;92625.41;4938946;29;20032;-79
2023/05/29 10:14:18;;;;;;;7.88;4.55;;;;;;;18.48;100.00;92640.66;4924064;29;20491;-80
2023/05/29 10:16:50;;;;;;;7.35;4.55;;;;;;;18.39;100.00;92631.25;4941338;29;20035;-81
2023/05/29 10:19:23;;;;;;;7.68;4.93;;;;;;;18.23;100.00;92625.84;4940925;29;20051;-81
2023/05/29 10:21:49;;;;;;;9.13;4.82;;;;;;;18.47;100.00;92620.56;4937300;29;20038;-81
2023/05/29 10:24:16;;;;;;;9.23;4.68;;;;;;;18.57;100.00;92632.59;4936084;29;20032;-78
2023/05/29 10:26:45;;;;;;;11.25;4.18;;;;;;;18.74;100.00;92631.59;4943010;29;20387;-79
2023/05/29 10:29:21;;;;;;;11.30;5.03;;;;;;;18.65;100.00;92630.94;4933442;29;20343;-80
2023/05/29 10:32:01;;;;;;;6.57;4.35;;;;;;;18.86;100.00;92621.00;4936208;29;20035;-80
2023/05/29 10:34:53;;;;;;;7.53;4.13;;;;;;;18.89;100.00;92620.34;4935472;29;20043;-78
2023/05/29 10:37:35;;;;;;;7.93;4.72;;;;;;;18.89;100.00;92624.84;4933185;29;20047;-78
2023/05/29 10:40:06;;;;;;;8.98;4.90;;;;;;;18.82;100.00;92624.66;4947075;29;20035;-78
2023/05/29 10:42:45;;;;;;;11.60;5.03;;;;;;;19.11;100.00;92627.03;4932212;29;20044;-78
2023/05/29 10:45:31;;;;;;;9.05;4.57;;;;;;;19.24;100.00;92619.03;4932486;29;20039;-77
2023/05/29 10:48:12;;;;;;;7.65;4.07;;;;;;;19.32;100.00;92621.56;4930889;29;20044;-78
2023/05/29 10:50:47;;;;;;;7.43;3.13;;;;;;;19.28;99.53;92625.22;4933904;29;20040;-79
2023/05/29 10:53:18;;;;;;;9.55;4.53;;;;;;;19.35;100.00;92615.56;4933488;29;20042;-77
2023/05/29 10:55:45;;;;;;;6.75;4.13;;;;;;;19.39;100.00;92615.69;4935558;29;20040;-81
2023/05/29 10:58:25;;;;;;;6.93;4.13;;;;;;;19.51;99.56;92618.28;4938253;29;20079;-79
2023/05/29 11:00:54;;;;;;;7.30;4.40;;;;;;;19.34;100.00;92616.69;4937052;29;20035;-79
2023/05/29 11:03:23;;;;;;;8.27;4.40;;;;;;;19.46;98.33;92615.09;4949655;28;20047;-80
2023/05/29 11:06:10;;;;;;;5.97;3.35;;;;;;;19.55;100.00;92607.78;4942025;29;20040;-81
2023/05/29 11:08:42;;;;;;;7.63;4.35;;;;;;;19.54;100.00;92609.66;4947987;28;20095;-80
2023/05/29 11:11:15;;;;;;;7.53;4.25;;;;;;;19.62;100.00;92607.94;4933535;29;20031;-79
2023/05/29 11:13:44;;;;;;;6.65;4.00;;;;;;;19.62;100.00;92605.28;4935407;29;20039;-79
2023/05/29 11:16:28;;;;;;;8.18;4.13;;;;;;;19.81;100.00;92594.03;4935565;29;20099;-79
2023/05/29 11:18:54;;;;;;;9.07;4.82;;;;;;;19.72;100.00;92596.88;4931230;29;20032;-77
2023/05/29 11:21:41;;;;;;;7.70;4.78;;;;;;;19.87;100.00;92597.25;4933027;29;20556;-77
2023/05/29 11:24:07;;;;;;;8.05;4.53;;;;;;;19.52;97.39;92600.47;4933342;29;20036;-78
2023/05/29 11:26:36;;;;;;;9.82;4.85;;;;;;;19.60;100.00;92596.13;4937291;29;20063;-77